sensor_id;sensor_type;location;lat;lon;timestamp;temperature;humidity
78731;SHT31;68055;51.978;5.658;2023-03-23T00:02:11;14.5;69.0
78731;SHT31;68055;51.978;5.658;2023-03-23T00:04:41;14.5;69.3
78731;SHT31;68055;51.978;5.658;2023-03-23T00:07:13;14.6;68.8
78731;SHT31;68055;51.978;5.658;2023-03-23T00:09:48;14.7;68.2
78731;SHT31;68055;51.978;5.658;2023-03-23T00:12:23;14.7;67.6
78731;SHT31;68055;51.978;5.658;2023-03-23T00:14:56;14.7;67.5
78731;SHT31;68055;51.978;5.658;2023-03-23T00:17:26;14.7;67.3
78731;SHT31;68055;51.978;5.658;2023-03-23T00:19:56;14.7;67.2
78731;SHT31;68055;51.978;5.658;2023-03-23T00:22:25;14.7;67.4
78731;SHT31;68055;51.978;5.658;2023-03-23T00:24:55;14.7;67.3
78731;SHT31;68055;51.978;5.658;2023-03-23T00:27:25;14.7;67.4
78731;SHT31;68055;51.978;5.658;2023-03-23T00:29:55;14.7;67.7
78731;SHT31;68055;51.978;5.658;2023-03-23T00:32:25;14.7;67.6
78731;SHT31;68055;51.978;5.658;2023-03-23T00:34:58;14.7;67.5
78731;SHT31;68055;51.978;5.658;2023-03-23T00:37:28;14.8;67.7
78731;SHT31;68055;51.978;5.658;2023-03-23T00:39:57;14.8;67.6
78731;SHT31;68055;51.978;5.658;2023-03-23T00:42:29;14.8;67.3
78731;SHT31;68055;51.978;5.658;2023-03-23T00:45:04;14.8;67.5
78731;SHT31;68055;51.978;5.658;2023-03-23T00:47:37;14.8;67.5
78731;SHT31;68055;51.978;5.658;2023-03-23T00:50:08;14.8;67.8
78731;SHT31;68055;51.978;5.658;2023-03-23T00:52:40;14.7;67.6
78731;SHT31;68055;51.978;5.658;2023-03-23T00:55:12;14.7;67.7
78731;SHT31;68055;51.978;5.658;2023-03-23T00:57:42;14.7;68.1
78731;SHT31;68055;51.978;5.658;2023-03-23T01:00:12;14.6;68.0
78731;SHT31;68055;51.978;5.658;2023-03-23T01:02:43;14.6;68.0
78731;SHT31;68055;51.978;5.658;2023-03-23T01:05:13;14.5;68.1
78731;SHT31;68055;51.978;5.658;2023-03-23T01:07:44;14.5;68.0
78731;SHT31;68055;51.978;5.658;2023-03-23T01:10:14;14.5;68.2
78731;SHT31;68055;51.978;5.658;2023-03-23T01:12:45;14.5;68.4
78731;SHT31;68055;51.978;5.658;2023-03-23T01:15:16;14.5;68.2
78731;SHT31;68055;51.978;5.658;2023-03-23T01:17:47;14.5;68.1
78731;SHT31;68055;51.978;5.658;2023-03-23T01:20:16;14.5;67.9
78731;SHT31;68055;51.978;5.658;2023-03-23T01:22:46;14.5;67.7
78731;SHT31;68055;51.978;5.658;2023-03-23T01:25:16;14.4;67.5
78731;SHT31;68055;51.978;5.658;2023-03-23T01:27:45;14.4;67.6
78731;SHT31;68055;51.978;5.658;2023-03-23T01:30:15;14.4;67.6
78731;SHT31;68055;51.978;5.658;2023-03-23T01:32:45;14.4;67.7
78731;SHT31;68055;51.978;5.658;2023-03-23T01:35:15;14.4;67.9
78731;SHT31;68055;51.978;5.658;2023-03-23T01:37:45;14.4;68.0
78731;SHT31;68055;51.978;5.658;2023-03-23T01:40:15;14.5;67.6
78731;SHT31;68055;51.978;5.658;2023-03-23T01:42:45;14.5;67.8
78731;SHT31;68055;51.978;5.658;2023-03-23T01:45:27;14.5;67.7
78731;SHT31;68055;51.978;5.658;2023-03-23T01:48:05;14.5;67.6
78731;SHT31;68055;51.978;5.658;2023-03-23T01:50:43;14.5;67.6
78731;SHT31;68055;51.978;5.658;2023-03-23T01:53:15;14.5;67.5
78731;SHT31;68055;51.978;5.658;2023-03-23T01:55:45;14.5;67.4
78731;SHT31;68055;51.978;5.658;2023-03-23T01:58:23;14.5;67.2
78731;SHT31;68055;51.978;5.658;2023-03-23T02:00:57;14.5;67.2
78731;SHT31;68055;51.978;5.658;2023-03-23T02:03:30;14.5;67.2
78731;SHT31;68055;51.978;5.658;2023-03-23T02:06:00;14.5;67.1
78731;SHT31;68055;51.978;5.658;2023-03-23T02:08:32;14.5;67.4
78731;SHT31;68055;51.978;5.658;2023-03-23T02:11:11;14.5;67.4
78731;SHT31;68055;51.978;5.658;2023-03-23T02:13:44;14.5;67.3
78731;SHT31;68055;51.978;5.658;2023-03-23T02:16:20;14.5;67.3
78731;SHT31;68055;51.978;5.658;2023-03-23T02:18:57;14.5;67.3
78731;SHT31;68055;51.978;5.658;2023-03-23T02:21:44;14.5;67.5
78731;SHT31;68055;51.978;5.658;2023-03-23T02:25:10;14.5;67.6
78731;SHT31;68055;51.978;5.658;2023-03-23T02:28:15;14.5;67.6
78731;SHT31;68055;51.978;5.658;2023-03-23T02:31:01;14.6;67.6
78731;SHT31;68055;51.978;5.658;2023-03-23T02:33:44;14.6;67.6
78731;SHT31;68055;51.978;5.658;2023-03-23T02:36:25;14.6;67.7
78731;SHT31;68055;51.978;5.658;2023-03-23T02:39:03;14.6;67.7
78731;SHT31;68055;51.978;5.658;2023-03-23T02:41:41;14.6;67.6
78731;SHT31;68055;51.978;5.658;2023-03-23T02:44:13;14.6;67.8
78731;SHT31;68055;51.978;5.658;2023-03-23T02:46:44;14.6;67.7
78731;SHT31;68055;51.978;5.658;2023-03-23T02:49:15;14.7;67.3
78731;SHT31;68055;51.978;5.658;2023-03-23T02:51:48;14.7;67.4
78731;SHT31;68055;51.978;5.658;2023-03-23T02:54:20;14.7;67.3
78731;SHT31;68055;51.978;5.658;2023-03-23T02:56:53;14.7;67.4
78731;SHT31;68055;51.978;5.658;2023-03-23T02:59:24;14.7;67.5
78731;SHT31;68055;51.978;5.658;2023-03-23T03:02:00;14.9;67.1
78731;SHT31;68055;51.978;5.658;2023-03-23T03:04:33;15.0;67.1
78731;SHT31;68055;51.978;5.658;2023-03-23T03:07:24;15.1;66.2
78731;SHT31;68055;51.978;5.658;2023-03-23T03:10:01;15.2;65.8
78731;SHT31;68055;51.978;5.658;2023-03-23T03:12:44;15.2;65.6
78731;SHT31;68055;51.978;5.658;2023-03-23T03:15:27;15.2;65.2
78731;SHT31;68055;51.978;5.658;2023-03-23T03:18:09;15.2;65.1
78731;SHT31;68055;51.978;5.658;2023-03-23T03:20:45;15.2;64.9
78731;SHT31;68055;51.978;5.658;2023-03-23T03:23:20;15.2;65.0
78731;SHT31;68055;51.978;5.658;2023-03-23T03:25:55;15.2;64.9
78731;SHT31;68055;51.978;5.658;2023-03-23T03:28:27;15.2;64.8
78731;SHT31;68055;51.978;5.658;2023-03-23T03:31:00;15.1;64.9
78731;SHT31;68055;51.978;5.658;2023-03-23T03:33:32;15.1;64.8
78731;SHT31;68055;51.978;5.658;2023-03-23T03:36:04;15.1;65.0
78731;SHT31;68055;51.978;5.658;2023-03-23T03:38:43;15.1;65.0
78731;SHT31;68055;51.978;5.658;2023-03-23T03:41:14;15.1;65.0
78731;SHT31;68055;51.978;5.658;2023-03-23T03:43:44;15.0;65.2
78731;SHT31;68055;51.978;5.658;2023-03-23T03:46:14;15.0;65.4
78731;SHT31;68055;51.978;5.658;2023-03-23T03:48:44;15.1;65.3
78731;SHT31;68055;51.978;5.658;2023-03-23T03:51:13;15.1;65.6
78731;SHT31;68055;51.978;5.658;2023-03-23T03:53:44;15.1;65.2
78731;SHT31;68055;51.978;5.658;2023-03-23T03:56:13;15.1;65.0
78731;SHT31;68055;51.978;5.658;2023-03-23T03:58:43;15.1;64.7
78731;SHT31;68055;51.978;5.658;2023-03-23T04:01:13;15.1;65.1
78731;SHT31;68055;51.978;5.658;2023-03-23T04:03:44;15.1;65.0
78731;SHT31;68055;51.978;5.658;2023-03-23T04:06:14;15.1;64.8
78731;SHT31;68055;51.978;5.658;2023-03-23T04:08:45;15.1;64.8
78731;SHT31;68055;51.978;5.658;2023-03-23T04:11:15;15.2;64.9
78731;SHT31;68055;51.978;5.658;2023-03-23T04:13:44;15.2;64.4
78731;SHT31;68055;51.978;5.658;2023-03-23T04:16:16;15.1;64.5
78731;SHT31;68055;51.978;5.658;2023-03-23T04:18:46;15.1;64.2
78731;SHT31;68055;51.978;5.658;2023-03-23T04:21:18;15.1;64.5
78731;SHT31;68055;51.978;5.658;2023-03-23T04:23:48;15.1;64.5
78731;SHT31;68055;51.978;5.658;2023-03-23T04:26:17;15.1;64.4
78731;SHT31;68055;51.978;5.658;2023-03-23T04:28:47;15.1;64.2
78731;SHT31;68055;51.978;5.658;2023-03-23T04:31:17;15.1;64.5
78731;SHT31;68055;51.978;5.658;2023-03-23T04:33:47;15.1;64.4
78731;SHT31;68055;51.978;5.658;2023-03-23T04:36:19;15.1;64.3
78731;SHT31;68055;51.978;5.658;2023-03-23T04:38:50;15.1;64.3
78731;SHT31;68055;51.978;5.658;2023-03-23T04:41:23;15.1;64.3
78731;SHT31;68055;51.978;5.658;2023-03-23T04:43:53;15.1;64.2
78731;SHT31;68055;51.978;5.658;2023-03-23T04:46:26;15.1;64.0
78731;SHT31;68055;51.978;5.658;2023-03-23T04:48:58;15.1;63.9
78731;SHT31;68055;51.978;5.658;2023-03-23T04:51:28;15.1;64.0
78731;SHT31;68055;51.978;5.658;2023-03-23T04:53:58;15.1;64.1
78731;SHT31;68055;51.978;5.658;2023-03-23T04:56:28;15.1;63.8
78731;SHT31;68055;51.978;5.658;2023-03-23T04:58:58;15.1;63.6
78731;SHT31;68055;51.978;5.658;2023-03-23T05:01:28;15.1;63.5
78731;SHT31;68055;51.978;5.658;2023-03-23T05:04:00;15.0;63.5
78731;SHT31;68055;51.978;5.658;2023-03-23T05:06:30;15.0;63.5
78731;SHT31;68055;51.978;5.658;2023-03-23T05:08:59;15.0;63.5
78731;SHT31;68055;51.978;5.658;2023-03-23T05:11:30;15.0;63.7
78731;SHT31;68055;51.978;5.658;2023-03-23T05:14:00;15.0;63.8
78731;SHT31;68055;51.978;5.658;2023-03-23T05:16:29;15.1;63.3
78731;SHT31;68055;51.978;5.658;2023-03-23T05:18:59;15.1;63.5
78731;SHT31;68055;51.978;5.658;2023-03-23T05:21:30;15.1;63.4
78731;SHT31;68055;51.978;5.658;2023-03-23T05:24:00;15.1;63.3
78731;SHT31;68055;51.978;5.658;2023-03-23T05:26:29;15.1;63.2
78731;SHT31;68055;51.978;5.658;2023-03-23T05:29:00;15.1;63.4
78731;SHT31;68055;51.978;5.658;2023-03-23T05:31:29;15.1;63.3
78731;SHT31;68055;51.978;5.658;2023-03-23T05:33:59;15.1;63.0
78731;SHT31;68055;51.978;5.658;2023-03-23T05:36:30;15.1;63.4
78731;SHT31;68055;51.978;5.658;2023-03-23T05:39:00;15.1;63.5
78731;SHT31;68055;51.978;5.658;2023-03-23T05:41:31;15.1;63.6
78731;SHT31;68055;51.978;5.658;2023-03-23T05:44:01;15.1;63.5
78731;SHT31;68055;51.978;5.658;2023-03-23T05:46:31;15.1;63.6
78731;SHT31;68055;51.978;5.658;2023-03-23T05:49:03;15.1;63.3
78731;SHT31;68055;51.978;5.658;2023-03-23T05:51:32;15.0;63.5
78731;SHT31;68055;51.978;5.658;2023-03-23T05:54:03;15.0;63.7
78731;SHT31;68055;51.978;5.658;2023-03-23T05:56:32;15.0;63.7
78731;SHT31;68055;51.978;5.658;2023-03-23T05:59:03;15.0;63.8
78731;SHT31;68055;51.978;5.658;2023-03-23T06:01:33;15.1;63.8
78731;SHT31;68055;51.978;5.658;2023-03-23T06:04:03;15.1;63.3
78731;SHT31;68055;51.978;5.658;2023-03-23T06:06:33;15.1;63.1
78731;SHT31;68055;51.978;5.658;2023-03-23T06:09:03;15.1;63.0
78731;SHT31;68055;51.978;5.658;2023-03-23T06:11:34;15.1;63.2
78731;SHT31;68055;51.978;5.658;2023-03-23T06:14:03;15.1;63.4
78731;SHT31;68055;51.978;5.658;2023-03-23T06:16:33;15.1;63.6
78731;SHT31;68055;51.978;5.658;2023-03-23T06:19:03;15.1;63.4
78731;SHT31;68055;51.978;5.658;2023-03-23T06:21:33;15.1;63.2
78731;SHT31;68055;51.978;5.658;2023-03-23T06:24:03;15.1;63.5
78731;SHT31;68055;51.978;5.658;2023-03-23T06:26:35;15.1;62.9
78731;SHT31;68055;51.978;5.658;2023-03-23T06:29:06;15.2;63.3
78731;SHT31;68055;51.978;5.658;2023-03-23T06:31:40;15.2;63.2
78731;SHT31;68055;51.978;5.658;2023-03-23T06:34:14;15.2;63.4
78731;SHT31;68055;51.978;5.658;2023-03-23T06:36:44;15.2;63.2
78731;SHT31;68055;51.978;5.658;2023-03-23T06:39:14;15.3;62.9
78731;SHT31;68055;51.978;5.658;2023-03-23T06:41:43;15.3;62.8
78731;SHT31;68055;51.978;5.658;2023-03-23T06:44:15;15.3;63.1
78731;SHT31;68055;51.978;5.658;2023-03-23T06:46:45;15.3;62.9
78731;SHT31;68055;51.978;5.658;2023-03-23T06:49:16;15.3;63.0
78731;SHT31;68055;51.978;5.658;2023-03-23T06:51:45;15.3;62.8
78731;SHT31;68055;51.978;5.658;2023-03-23T06:54:15;15.3;62.7
78731;SHT31;68055;51.978;5.658;2023-03-23T06:56:44;15.4;62.8
78731;SHT31;68055;51.978;5.658;2023-03-23T06:59:14;15.4;62.7
78731;SHT31;68055;51.978;5.658;2023-03-23T07:01:43;15.4;62.7
78731;SHT31;68055;51.978;5.658;2023-03-23T07:04:14;15.5;62.3
78731;SHT31;68055;51.978;5.658;2023-03-23T07:06:43;15.5;62.5
78731;SHT31;68055;51.978;5.658;2023-03-23T07:09:13;15.5;62.2
78731;SHT31;68055;51.978;5.658;2023-03-23T07:11:43;15.5;62.4
78731;SHT31;68055;51.978;5.658;2023-03-23T07:14:15;15.5;62.2
78731;SHT31;68055;51.978;5.658;2023-03-23T07:16:44;15.5;62.2
78731;SHT31;68055;51.978;5.658;2023-03-23T07:19:15;15.5;62.2
78731;SHT31;68055;51.978;5.658;2023-03-23T07:21:46;15.5;62.2
78731;SHT31;68055;51.978;5.658;2023-03-23T07:24:16;15.5;62.5
78731;SHT31;68055;51.978;5.658;2023-03-23T07:26:47;15.5;62.8
78731;SHT31;68055;51.978;5.658;2023-03-23T07:29:16;15.6;62.5
78731;SHT31;68055;51.978;5.658;2023-03-23T07:31:46;15.6;62.7
78731;SHT31;68055;51.978;5.658;2023-03-23T07:34:15;15.6;62.7
78731;SHT31;68055;51.978;5.658;2023-03-23T07:36:45;15.6;62.5
78731;SHT31;68055;51.978;5.658;2023-03-23T07:39:17;15.6;62.6
78731;SHT31;68055;51.978;5.658;2023-03-23T07:41:46;15.6;62.7
78731;SHT31;68055;51.978;5.658;2023-03-23T07:44:16;15.6;62.2
78731;SHT31;68055;51.978;5.658;2023-03-23T07:46:47;15.6;62.1
78731;SHT31;68055;51.978;5.658;2023-03-23T07:49:18;15.6;62.0
78731;SHT31;68055;51.978;5.658;2023-03-23T07:51:48;15.6;62.6
78731;SHT31;68055;51.978;5.658;2023-03-23T07:54:20;15.5;62.8
78731;SHT31;68055;51.978;5.658;2023-03-23T07:56:49;15.5;63.5
78731;SHT31;68055;51.978;5.658;2023-03-23T07:59:19;15.4;64.0
78731;SHT31;68055;51.978;5.658;2023-03-23T08:01:49;15.4;64.3
78731;SHT31;68055;51.978;5.658;2023-03-23T08:04:19;15.4;64.4
78731;SHT31;68055;51.978;5.658;2023-03-23T08:06:48;15.3;64.6
78731;SHT31;68055;51.978;5.658;2023-03-23T08:09:18;15.3;64.9
78731;SHT31;68055;51.978;5.658;2023-03-23T08:11:47;15.2;65.6
78731;SHT31;68055;51.978;5.658;2023-03-23T08:14:17;15.2;66.2
78731;SHT31;68055;51.978;5.658;2023-03-23T08:16:47;15.1;66.2
78731;SHT31;68055;51.978;5.658;2023-03-23T08:19:18;15.1;67.3
78731;SHT31;68055;51.978;5.658;2023-03-23T08:21:47;15.0;67.5
78731;SHT31;68055;51.978;5.658;2023-03-23T08:24:17;15.0;67.5
78731;SHT31;68055;51.978;5.658;2023-03-23T08:26:49;14.9;67.8
78731;SHT31;68055;51.978;5.658;2023-03-23T08:29:19;14.9;68.0
78731;SHT31;68055;51.978;5.658;2023-03-23T08:31:49;14.8;68.4
78731;SHT31;68055;51.978;5.658;2023-03-23T08:34:19;14.8;68.9
78731;SHT31;68055;51.978;5.658;2023-03-23T08:36:49;14.8;68.3
78731;SHT31;68055;51.978;5.658;2023-03-23T08:39:20;14.8;68.4
78731;SHT31;68055;51.978;5.658;2023-03-23T08:41:50;14.8;68.2
78731;SHT31;68055;51.978;5.658;2023-03-23T08:44:20;14.8;68.0
78731;SHT31;68055;51.978;5.658;2023-03-23T08:46:49;14.8;67.2
78731;SHT31;68055;51.978;5.658;2023-03-23T08:49:22;14.8;67.4
78731;SHT31;68055;51.978;5.658;2023-03-23T08:51:53;14.8;67.6
78731;SHT31;68055;51.978;5.658;2023-03-23T08:54:23;14.8;66.9
78731;SHT31;68055;51.978;5.658;2023-03-23T08:56:52;14.9;67.3
78731;SHT31;68055;51.978;5.658;2023-03-23T08:59:22;14.9;67.2
78731;SHT31;68055;51.978;5.658;2023-03-23T09:01:54;14.9;66.8
78731;SHT31;68055;51.978;5.658;2023-03-23T09:04:24;15.0;67.0
78731;SHT31;68055;51.978;5.658;2023-03-23T09:06:55;15.0;66.4
78731;SHT31;68055;51.978;5.658;2023-03-23T09:09:25;15.0;65.9
78731;SHT31;68055;51.978;5.658;2023-03-23T09:11:55;15.1;65.4
78731;SHT31;68055;51.978;5.658;2023-03-23T09:14:24;15.1;65.8
78731;SHT31;68055;51.978;5.658;2023-03-23T09:16:54;15.2;66.7
78731;SHT31;68055;51.978;5.658;2023-03-23T09:19:24;15.3;64.9
78731;SHT31;68055;51.978;5.658;2023-03-23T09:21:54;15.4;64.5
78731;SHT31;68055;51.978;5.658;2023-03-23T09:24:23;15.5;64.8
78731;SHT31;68055;51.978;5.658;2023-03-23T09:26:53;15.6;64.4
78731;SHT31;68055;51.978;5.658;2023-03-23T09:29:23;15.7;64.8
78731;SHT31;68055;51.978;5.658;2023-03-23T09:31:53;15.8;63.5
78731;SHT31;68055;51.978;5.658;2023-03-23T09:34:25;16.0;62.4
78731;SHT31;68055;51.978;5.658;2023-03-23T09:36:56;16.1;61.6
78731;SHT31;68055;51.978;5.658;2023-03-23T09:39:27;16.2;60.2
78731;SHT31;68055;51.978;5.658;2023-03-23T09:42:15;16.2;59.2
78731;SHT31;68055;51.978;5.658;2023-03-23T09:45:00;16.3;60.5
78731;SHT31;68055;51.978;5.658;2023-03-23T09:47:37;16.3;60.3
78731;SHT31;68055;51.978;5.658;2023-03-23T09:50:14;16.4;59.5
78731;SHT31;68055;51.978;5.658;2023-03-23T09:52:50;16.4;60.5
78731;SHT31;68055;51.978;5.658;2023-03-23T09:55:21;16.4;61.2
78731;SHT31;68055;51.978;5.658;2023-03-23T09:58:08;16.4;60.2
78731;SHT31;68055;51.978;5.658;2023-03-23T10:00:35;16.5;60.1
78731;SHT31;68055;51.978;5.658;2023-03-23T10:03:14;16.5;58.4
78731;SHT31;68055;51.978;5.658;2023-03-23T10:05:46;16.5;58.3
78731;SHT31;68055;51.978;5.658;2023-03-23T10:08:19;16.5;58.5
78731;SHT31;68055;51.978;5.658;2023-03-23T10:10:56;16.5;58.1
78731;SHT31;68055;51.978;5.658;2023-03-23T10:13:40;16.5;58.5
78731;SHT31;68055;51.978;5.658;2023-03-23T10:16:12;16.5;58.0
78731;SHT31;68055;51.978;5.658;2023-03-23T10:18:49;16.5;58.6
78731;SHT31;68055;51.978;5.658;2023-03-23T10:21:23;16.5;58.5
78731;SHT31;68055;51.978;5.658;2023-03-23T10:23:58;16.5;58.4
78731;SHT31;68055;51.978;5.658;2023-03-23T10:27:02;16.6;57.3
78731;SHT31;68055;51.978;5.658;2023-03-23T10:29:31;16.6;56.8
78731;SHT31;68055;51.978;5.658;2023-03-23T10:32:11;16.6;56.5
78731;SHT31;68055;51.978;5.658;2023-03-23T10:34:45;16.7;56.3
78731;SHT31;68055;51.978;5.658;2023-03-23T10:37:21;16.7;56.6
78731;SHT31;68055;51.978;5.658;2023-03-23T10:39:56;16.7;56.5
78731;SHT31;68055;51.978;5.658;2023-03-23T10:42:28;16.8;56.1
78731;SHT31;68055;51.978;5.658;2023-03-23T10:45:11;16.8;56.1
78731;SHT31;68055;51.978;5.658;2023-03-23T10:47:46;16.9;55.2
78731;SHT31;68055;51.978;5.658;2023-03-23T10:50:21;16.9;55.2
78731;SHT31;68055;51.978;5.658;2023-03-23T10:52:59;17.0;55.0
78731;SHT31;68055;51.978;5.658;2023-03-23T10:55:38;17.0;54.7
78731;SHT31;68055;51.978;5.658;2023-03-23T10:58:10;17.1;53.8
78731;SHT31;68055;51.978;5.658;2023-03-23T11:00:46;17.2;54.0
78731;SHT31;68055;51.978;5.658;2023-03-23T11:03:25;17.2;54.2
78731;SHT31;68055;51.978;5.658;2023-03-23T11:06:00;17.3;52.4
78731;SHT31;68055;51.978;5.658;2023-03-23T11:08:35;17.4;53.0
78731;SHT31;68055;51.978;5.658;2023-03-23T11:11:15;17.5;52.2
78731;SHT31;68055;51.978;5.658;2023-03-23T11:13:47;17.6;50.5
78731;SHT31;68055;51.978;5.658;2023-03-23T11:16:27;17.6;50.6
78731;SHT31;68055;51.978;5.658;2023-03-23T11:18:58;17.7;51.7
78731;SHT31;68055;51.978;5.658;2023-03-23T11:21:29;17.7;50.7
78731;SHT31;68055;51.978;5.658;2023-03-23T11:24:01;17.8;51.0
78731;SHT31;68055;51.978;5.658;2023-03-23T11:26:33;17.8;52.7
78731;SHT31;68055;51.978;5.658;2023-03-23T11:29:09;17.8;53.0
78731;SHT31;68055;51.978;5.658;2023-03-23T11:31:43;17.8;53.4
78731;SHT31;68055;51.978;5.658;2023-03-23T11:34:17;17.7;52.6
78731;SHT31;68055;51.978;5.658;2023-03-23T11:36:51;17.6;52.5
78731;SHT31;68055;51.978;5.658;2023-03-23T11:39:25;17.6;52.3
78731;SHT31;68055;51.978;5.658;2023-03-23T11:41:57;17.5;53.4
78731;SHT31;68055;51.978;5.658;2023-03-23T11:44:34;17.5;53.7
78731;SHT31;68055;51.978;5.658;2023-03-23T11:47:15;17.5;53.5
78731;SHT31;68055;51.978;5.658;2023-03-23T11:49:52;17.5;53.4
78731;SHT31;68055;51.978;5.658;2023-03-23T11:52:29;17.6;53.4
78731;SHT31;68055;51.978;5.658;2023-03-23T11:55:07;17.6;52.3
78731;SHT31;68055;51.978;5.658;2023-03-23T11:57:38;17.6;52.3
78731;SHT31;68055;51.978;5.658;2023-03-23T12:00:13;17.7;51.6
78731;SHT31;68055;51.978;5.658;2023-03-23T12:03:05;17.7;52.2
78731;SHT31;68055;51.978;5.658;2023-03-23T12:05:47;17.8;51.1
78731;SHT31;68055;51.978;5.658;2023-03-23T12:09:11;17.9;51.2
78731;SHT31;68055;51.978;5.658;2023-03-23T12:11:52;18.0;51.4
78731;SHT31;68055;51.978;5.658;2023-03-23T12:14:33;18.1;50.7
78731;SHT31;68055;51.978;5.658;2023-03-23T12:17:20;18.1;50.3
78731;SHT31;68055;51.978;5.658;2023-03-23T12:20:12;18.2;51.6
78731;SHT31;68055;51.978;5.658;2023-03-23T12:22:56;18.2;53.3
78731;SHT31;68055;51.978;5.658;2023-03-23T12:26:25;18.1;55.9
78731;SHT31;68055;51.978;5.658;2023-03-23T12:29:23;17.8;57.2
78731;SHT31;68055;51.978;5.658;2023-03-23T12:32:17;17.4;59.6
78731;SHT31;68055;51.978;5.658;2023-03-23T12:34:53;17.0;60.8
78731;SHT31;68055;51.978;5.658;2023-03-23T12:37:41;16.8;62.1
78731;SHT31;68055;51.978;5.658;2023-03-23T12:43:23;16.3;63.3
78731;SHT31;68055;51.978;5.658;2023-03-23T12:46:14;16.1;65.2
78731;SHT31;68055;51.978;5.658;2023-03-23T12:48:49;16.0;65.7
78731;SHT31;68055;51.978;5.658;2023-03-23T12:51:27;15.9;66.5
78731;SHT31;68055;51.978;5.658;2023-03-23T12:54:03;15.8;67.6
78731;SHT31;68055;51.978;5.658;2023-03-23T12:56:40;15.8;67.2
78731;SHT31;68055;51.978;5.658;2023-03-23T12:59:19;15.7;67.0
78731;SHT31;68055;51.978;5.658;2023-03-23T13:01:54;15.7;68.3
78731;SHT31;68055;51.978;5.658;2023-03-23T13:04:30;15.6;68.3
78731;SHT31;68055;51.978;5.658;2023-03-23T13:07:06;15.6;69.1
78731;SHT31;68055;51.978;5.658;2023-03-23T13:09:44;15.6;67.6
78731;SHT31;68055;51.978;5.658;2023-03-23T13:12:17;15.6;68.3
78731;SHT31;68055;51.978;5.658;2023-03-23T13:14:55;15.5;66.5
78731;SHT31;68055;51.978;5.658;2023-03-23T13:17:42;15.5;67.0
78731;SHT31;68055;51.978;5.658;2023-03-23T13:20:34;15.5;67.9
78731;SHT31;68055;51.978;5.658;2023-03-23T13:23:14;15.4;68.1
78731;SHT31;68055;51.978;5.658;2023-03-23T13:25:59;15.4;67.3
78731;SHT31;68055;51.978;5.658;2023-03-23T13:28:31;15.4;67.4
78731;SHT31;68055;51.978;5.658;2023-03-23T13:31:04;15.3;66.6
78731;SHT31;68055;51.978;5.658;2023-03-23T13:33:35;15.3;67.0
78731;SHT31;68055;51.978;5.658;2023-03-23T13:36:10;15.3;67.7
78731;SHT31;68055;51.978;5.658;2023-03-23T13:38:47;15.3;66.7
78731;SHT31;68055;51.978;5.658;2023-03-23T13:41:21;15.3;67.2
78731;SHT31;68055;51.978;5.658;2023-03-23T13:43:52;15.3;66.2
78731;SHT31;68055;51.978;5.658;2023-03-23T13:46:28;15.3;66.5
78731;SHT31;68055;51.978;5.658;2023-03-23T13:49:16;15.2;67.2
78731;SHT31;68055;51.978;5.658;2023-03-23T13:51:59;15.2;65.7
78731;SHT31;68055;51.978;5.658;2023-03-23T13:54:43;15.3;67.5
78731;SHT31;68055;51.978;5.658;2023-03-23T13:57:24;15.3;67.3
78731;SHT31;68055;51.978;5.658;2023-03-23T14:00:25;15.3;68.0
78731;SHT31;68055;51.978;5.658;2023-03-23T14:03:01;15.4;67.1
78731;SHT31;68055;51.978;5.658;2023-03-23T14:05:34;15.4;67.5
78731;SHT31;68055;51.978;5.658;2023-03-23T14:08:21;15.4;67.3
78731;SHT31;68055;51.978;5.658;2023-03-23T14:10:54;15.5;67.6
78731;SHT31;68055;51.978;5.658;2023-03-23T14:13:32;15.5;67.6
78731;SHT31;68055;51.978;5.658;2023-03-23T14:16:15;15.5;68.1
78731;SHT31;68055;51.978;5.658;2023-03-23T14:18:42;15.6;67.0
78731;SHT31;68055;51.978;5.658;2023-03-23T14:21:25;15.6;66.9
78731;SHT31;68055;51.978;5.658;2023-03-23T14:23:55;15.6;65.8
78731;SHT31;68055;51.978;5.658;2023-03-23T14:26:24;15.7;66.0
78731;SHT31;68055;51.978;5.658;2023-03-23T14:28:54;15.7;64.6
78731;SHT31;68055;51.978;5.658;2023-03-23T14:31:26;15.8;63.8
78731;SHT31;68055;51.978;5.658;2023-03-23T14:34:03;15.8;64.4
78731;SHT31;68055;51.978;5.658;2023-03-23T14:36:37;15.8;64.0
78731;SHT31;68055;51.978;5.658;2023-03-23T14:39:17;15.9;63.1
78731;SHT31;68055;51.978;5.658;2023-03-23T14:41:48;15.9;63.0
78731;SHT31;68055;51.978;5.658;2023-03-23T14:44:23;16.0;63.1
78731;SHT31;68055;51.978;5.658;2023-03-23T14:46:55;16.0;62.0
78731;SHT31;68055;51.978;5.658;2023-03-23T14:49:29;16.1;62.4
78731;SHT31;68055;51.978;5.658;2023-03-23T14:52:07;16.1;62.1
78731;SHT31;68055;51.978;5.658;2023-03-23T14:54:38;16.1;61.3
78731;SHT31;68055;51.978;5.658;2023-03-23T14:57:14;16.2;60.8
78731;SHT31;68055;51.978;5.658;2023-03-23T14:59:46;16.2;59.9
78731;SHT31;68055;51.978;5.658;2023-03-23T15:02:21;16.2;59.1
78731;SHT31;68055;51.978;5.658;2023-03-23T15:04:56;16.2;58.8
78731;SHT31;68055;51.978;5.658;2023-03-23T15:07:30;16.2;59.2
78731;SHT31;68055;51.978;5.658;2023-03-23T15:10:01;16.2;58.0
78731;SHT31;68055;51.978;5.658;2023-03-23T15:12:34;16.3;59.4
78731;SHT31;68055;51.978;5.658;2023-03-23T15:15:07;16.3;58.4
78731;SHT31;68055;51.978;5.658;2023-03-23T15:17:47;16.3;58.3
78731;SHT31;68055;51.978;5.658;2023-03-23T15:20:24;16.3;58.7
78731;SHT31;68055;51.978;5.658;2023-03-23T15:22:55;16.3;59.1
78731;SHT31;68055;51.978;5.658;2023-03-23T15:25:32;16.4;59.1
78731;SHT31;68055;51.978;5.658;2023-03-23T15:28:18;16.4;58.0
78731;SHT31;68055;51.978;5.658;2023-03-23T15:30:51;16.4;58.3
78731;SHT31;68055;51.978;5.658;2023-03-23T15:33:21;16.4;59.0
78731;SHT31;68055;51.978;5.658;2023-03-23T15:35:56;16.5;60.0
78731;SHT31;68055;51.978;5.658;2023-03-23T15:38:29;16.5;58.3
78731;SHT31;68055;51.978;5.658;2023-03-23T15:41:02;16.5;58.5
78731;SHT31;68055;51.978;5.658;2023-03-23T15:43:33;16.5;58.3
78731;SHT31;68055;51.978;5.658;2023-03-23T15:46:21;16.5;58.6
78731;SHT31;68055;51.978;5.658;2023-03-23T15:48:53;16.5;58.4
78731;SHT31;68055;51.978;5.658;2023-03-23T15:51:25;16.6;58.5
78731;SHT31;68055;51.978;5.658;2023-03-23T15:53:56;16.6;58.4
78731;SHT31;68055;51.978;5.658;2023-03-23T15:56:26;16.6;58.8
78731;SHT31;68055;51.978;5.658;2023-03-23T15:58:57;16.6;58.5
78731;SHT31;68055;51.978;5.658;2023-03-23T16:01:29;16.7;58.7
78731;SHT31;68055;51.978;5.658;2023-03-23T16:04:05;16.7;58.9
78731;SHT31;68055;51.978;5.658;2023-03-23T16:06:38;16.7;59.0
78731;SHT31;68055;51.978;5.658;2023-03-23T16:09:15;16.8;59.1
78731;SHT31;68055;51.978;5.658;2023-03-23T16:11:48;16.8;58.7
78731;SHT31;68055;51.978;5.658;2023-03-23T16:14:17;16.9;58.5
78731;SHT31;68055;51.978;5.658;2023-03-23T16:16:48;16.9;58.0
78731;SHT31;68055;51.978;5.658;2023-03-23T16:19:21;16.9;57.3
78731;SHT31;68055;51.978;5.658;2023-03-23T16:21:53;16.9;57.1
78731;SHT31;68055;51.978;5.658;2023-03-23T16:24:24;17.0;57.2
78731;SHT31;68055;51.978;5.658;2023-03-23T16:26:55;17.0;57.0
78731;SHT31;68055;51.978;5.658;2023-03-23T16:29:25;17.0;56.5
78731;SHT31;68055;51.978;5.658;2023-03-23T16:31:56;17.0;56.7
78731;SHT31;68055;51.978;5.658;2023-03-23T16:34:26;17.0;56.4
78731;SHT31;68055;51.978;5.658;2023-03-23T16:37:00;17.0;56.2
78731;SHT31;68055;51.978;5.658;2023-03-23T16:39:29;17.0;56.3
78731;SHT31;68055;51.978;5.658;2023-03-23T16:41:59;17.0;56.7
78731;SHT31;68055;51.978;5.658;2023-03-23T16:44:29;17.0;56.4
78731;SHT31;68055;51.978;5.658;2023-03-23T16:46:58;17.0;56.2
78731;SHT31;68055;51.978;5.658;2023-03-23T16:49:30;17.0;56.2